Courtland, Kansas
Current Conditions -  °F | °C
As of 12:55 AM on Saturday 25 Oct 2014 (Local Time) from KCNK Reporting Station
Clear Clear  
Wind Chill: 60°   Ceiling: Unl
Heat Index: 60°   Visibility: 10mi
Dew Point: 51°   Wind: 0mph
Humidity: 72%   Direction: NA
Pressure: 30.03"   Gusts: NA
Location:  39.78°N, 97.89°W
Report Text: KCNK 250555Z AUTO 00000KT 10SM CLR 16/11 A3003 RMK AO2 SLP160 T01560106 10217 20139 402830139 51012
Loading
Personal Weather Stations






























Interactive Weather Map
Tropical Storm Tracking
New forecast layout! Learn more

10-Day Weather Forecast

Advertisements
Track Severe Weather on mobile